Hundvaag 1 weather for Feb 2000
Month no. 152
Obs.
Da.
Temp. Dew Point Precip. Wind
Speed
Wind gusts Cloud cover Press. Humidity Wind dir. Sunny OPT
01.02.2000 1,5   2,4     0 1006,7        
02.02.2000 4,7   6,9     0 1004,0     1  
03.02.2000 2,0   4,6     9 1014,0     1  
04.02.2000 6,4   7,4     0 1014,3        
05.02.2000 8,6   21,6     0 1014,3        
06.02.2000 6,2   4,2     3 1013,5        
07.02.2000 6,4   3,2     0 997,3     1  
08.02.2000 4,8   2,9     0 997,1     1  
09.02.2000 3,4   3,6     0 997,2     1  
10.02.2000 6,7   0,0     0 1005,5        
11.02.2000 4,9   13,9     2 1007,5        
12.02.2000 5,6   1,9     0 1004,7        
13.02.2000 4,3   13,5     2 1004,8     1  
14.02.2000 0,0   7,2     8 1014,0     1  
15.02.2000 4,2   5,4     10 1007,3     1  
16.02.2000 1,7   1,0     0 1001,5     1  
17.02.2000 -0,6   0,0     8 1003,1     1  
18.02.2000 1,9   1,4     9 1004,4        
19.02.2000 1,8   0,0     3 1011,2     1  
20.02.2000 -1,3   0,0     10 1021,3     1  
21.02.2000 -0,8   0,0     6 1021,1     1  
22.02.2000 3,1   0,4     0 1020,7        
23.02.2000 2,4   0,0     0 1020,3     1  
24.02.2000 3,6   14,6     0 1012,1     1  
25.02.2000 2,3   1,5     6 1012,0     1  
26.02.2000 5,7   2,9     3 1017,3     1  
27.02.2000 6,8   3,7     0 1011,5        
28.02.2000 5,1   23,3     3 1004,0     1  
29.02.2000 4,7   0,7     2 1003,7     1  
                       
                       
Avrg/Sum 3,7   148,2     2,9 1009,2     19